sensor_id;sensor_type;location;lat;lon;timestamp;P1;durP1;ratioP1;P2;durP2;ratioP2
11691;SDS011;33659;42.672;23.354;2023-07-31T00:00:08;2.58;;;2.38;;
11691;SDS011;33659;42.672;23.354;2023-07-31T00:02:35;3.70;;;2.38;;
11691;SDS011;33659;42.672;23.354;2023-07-31T00:05:03;3.53;;;2.67;;
11691;SDS011;33659;42.672;23.354;2023-07-31T00:07:31;3.03;;;2.28;;
11691;SDS011;33659;42.672;23.354;2023-07-31T00:09:58;2.83;;;2.40;;
11691;SDS011;33659;42.672;23.354;2023-07-31T00:12:25;4.53;;;2.42;;
11691;SDS011;33659;42.672;23.354;2023-07-31T00:14:52;2.53;;;2.33;;
11691;SDS011;33659;42.672;23.354;2023-07-31T00:17:18;3.05;;;2.42;;
11691;SDS011;33659;42.672;23.354;2023-07-31T00:19:45;2.60;;;2.40;;
11691;SDS011;33659;42.672;23.354;2023-07-31T00:22:15;2.78;;;2.40;;
11691;SDS011;33659;42.672;23.354;2023-07-31T00:24:42;3.03;;;2.65;;
11691;SDS011;33659;42.672;23.354;2023-07-31T00:27:09;2.70;;;2.47;;
11691;SDS011;33659;42.672;23.354;2023-07-31T00:29:36;3.00;;;2.72;;
11691;SDS011;33659;42.672;23.354;2023-07-31T00:32:03;2.72;;;2.50;;
11691;SDS011;33659;42.672;23.354;2023-07-31T00:34:30;3.40;;;2.70;;
11691;SDS011;33659;42.672;23.354;2023-07-31T00:36:56;3.40;;;2.80;;
11691;SDS011;33659;42.672;23.354;2023-07-31T00:39:25;3.10;;;2.80;;
11691;SDS011;33659;42.672;23.354;2023-07-31T00:41:51;3.55;;;2.95;;
11691;SDS011;33659;42.672;23.354;2023-07-31T00:44:18;3.40;;;3.10;;
11691;SDS011;33659;42.672;23.354;2023-07-31T00:46:45;3.67;;;3.00;;
11691;SDS011;33659;42.672;23.354;2023-07-31T00:49:11;3.35;;;3.05;;
11691;SDS011;33659;42.672;23.354;2023-07-31T00:51:38;3.42;;;3.10;;
11691;SDS011;33659;42.672;23.354;2023-07-31T00:54:05;3.05;;;2.85;;
11691;SDS011;33659;42.672;23.354;2023-07-31T00:56:34;4.10;;;3.63;;
11691;SDS011;33659;42.672;23.354;2023-07-31T00:59:01;4.47;;;4.03;;
11691;SDS011;33659;42.672;23.354;2023-07-31T01:01:27;5.82;;;4.28;;
11691;SDS011;33659;42.672;23.354;2023-07-31T01:03:54;4.55;;;4.15;;
11691;SDS011;33659;42.672;23.354;2023-07-31T01:06:23;4.88;;;4.28;;
11691;SDS011;33659;42.672;23.354;2023-07-31T01:08:58;5.35;;;4.85;;
11691;SDS011;33659;42.672;23.354;2023-07-31T01:11:31;6.50;;;5.50;;
11691;SDS011;33659;42.672;23.354;2023-07-31T01:14:01;6.43;;;4.88;;
11691;SDS011;33659;42.672;23.354;2023-07-31T01:16:28;5.70;;;5.20;;
11691;SDS011;33659;42.672;23.354;2023-07-31T01:18:55;6.80;;;6.00;;
11691;SDS011;33659;42.672;23.354;2023-07-31T01:21:25;6.88;;;6.22;;
11691;SDS011;33659;42.672;23.354;2023-07-31T01:24:18;7.70;;;6.82;;
11691;SDS011;33659;42.672;23.354;2023-07-31T01:26:52;10.48;;;7.10;;
11691;SDS011;33659;42.672;23.354;2023-07-31T01:29:24;7.97;;;7.18;;
11691;SDS011;33659;42.672;23.354;2023-07-31T01:31:59;7.72;;;6.85;;
11691;SDS011;33659;42.672;23.354;2023-07-31T01:34:28;8.60;;;7.70;;
11691;SDS011;33659;42.672;23.354;2023-07-31T01:36:55;9.40;;;8.40;;
11691;SDS011;33659;42.672;23.354;2023-07-31T01:39:23;8.98;;;8.07;;
11691;SDS011;33659;42.672;23.354;2023-07-31T01:41:51;9.45;;;8.50;;
11691;SDS011;33659;42.672;23.354;2023-07-31T01:44:17;10.63;;;9.18;;
11691;SDS011;33659;42.672;23.354;2023-07-31T01:46:44;9.93;;;8.93;;
11691;SDS011;33659;42.672;23.354;2023-07-31T01:49:11;10.40;;;9.40;;
11691;SDS011;33659;42.672;23.354;2023-07-31T01:51:37;11.75;;;10.52;;
11691;SDS011;33659;42.672;23.354;2023-07-31T01:54:04;12.65;;;10.23;;
11691;SDS011;33659;42.672;23.354;2023-07-31T01:56:31;12.13;;;10.77;;
11691;SDS011;33659;42.672;23.354;2023-07-31T01:58:59;14.50;;;11.27;;
11691;SDS011;33659;42.672;23.354;2023-07-31T02:01:26;12.38;;;10.95;;
11691;SDS011;33659;42.672;23.354;2023-07-31T02:03:53;13.00;;;11.60;;
11691;SDS011;33659;42.672;23.354;2023-07-31T02:06:19;13.05;;;11.68;;
11691;SDS011;33659;42.672;23.354;2023-07-31T02:08:47;14.20;;;11.77;;
11691;SDS011;33659;42.672;23.354;2023-07-31T02:11:14;14.15;;;11.93;;
11691;SDS011;33659;42.672;23.354;2023-07-31T02:13:41;13.38;;;11.98;;
11691;SDS011;33659;42.672;23.354;2023-07-31T02:16:09;14.73;;;12.48;;
11691;SDS011;33659;42.672;23.354;2023-07-31T02:18:35;13.35;;;11.95;;
11691;SDS011;33659;42.672;23.354;2023-07-31T02:21:02;15.20;;;12.00;;
11691;SDS011;33659;42.672;23.354;2023-07-31T02:23:29;14.70;;;11.82;;
11691;SDS011;33659;42.672;23.354;2023-07-31T02:25:56;13.23;;;11.82;;
11691;SDS011;33659;42.672;23.354;2023-07-31T02:28:23;14.27;;;11.52;;
11691;SDS011;33659;42.672;23.354;2023-07-31T02:30:50;14.60;;;12.40;;
11691;SDS011;33659;42.672;23.354;2023-07-31T02:33:18;14.13;;;12.27;;
11691;SDS011;33659;42.672;23.354;2023-07-31T02:35:45;14.70;;;12.57;;
11691;SDS011;33659;42.672;23.354;2023-07-31T02:38:12;15.77;;;13.20;;
11691;SDS011;33659;42.672;23.354;2023-07-31T02:40:39;14.43;;;12.93;;
11691;SDS011;33659;42.672;23.354;2023-07-31T02:43:06;14.77;;;12.82;;
11691;SDS011;33659;42.672;23.354;2023-07-31T02:45:33;15.60;;;12.88;;
11691;SDS011;33659;42.672;23.354;2023-07-31T02:47:59;14.98;;;13.25;;
11691;SDS011;33659;42.672;23.354;2023-07-31T02:50:28;15.27;;;12.30;;
11691;SDS011;33659;42.672;23.354;2023-07-31T02:52:54;16.98;;;12.80;;
11691;SDS011;33659;42.672;23.354;2023-07-31T02:55:21;15.48;;;13.32;;
11691;SDS011;33659;42.672;23.354;2023-07-31T02:57:48;17.30;;;12.82;;
11691;SDS011;33659;42.672;23.354;2023-07-31T03:00:15;16.20;;;12.73;;
11691;SDS011;33659;42.672;23.354;2023-07-31T03:02:41;14.48;;;12.73;;
11691;SDS011;33659;42.672;23.354;2023-07-31T03:05:08;15.07;;;12.57;;
11691;SDS011;33659;42.672;23.354;2023-07-31T03:07:36;14.05;;;12.55;;
11691;SDS011;33659;42.672;23.354;2023-07-31T03:10:03;14.50;;;12.80;;
11691;SDS011;33659;42.672;23.354;2023-07-31T03:12:30;14.90;;;13.15;;
11691;SDS011;33659;42.672;23.354;2023-07-31T03:14:57;18.13;;;14.82;;
11691;SDS011;33659;42.672;23.354;2023-07-31T03:17:24;16.52;;;13.50;;
11691;SDS011;33659;42.672;23.354;2023-07-31T03:19:50;14.60;;;12.32;;
11691;SDS011;33659;42.672;23.354;2023-07-31T03:22:17;15.82;;;13.15;;
11691;SDS011;33659;42.672;23.354;2023-07-31T03:24:45;14.60;;;12.50;;
11691;SDS011;33659;42.672;23.354;2023-07-31T03:27:12;15.02;;;12.68;;
11691;SDS011;33659;42.672;23.354;2023-07-31T03:29:39;14.02;;;11.90;;
11691;SDS011;33659;42.672;23.354;2023-07-31T03:32:06;14.35;;;12.88;;
11691;SDS011;33659;42.672;23.354;2023-07-31T03:34:33;15.55;;;13.60;;
11691;SDS011;33659;42.672;23.354;2023-07-31T03:36:59;14.55;;;12.50;;
11691;SDS011;33659;42.672;23.354;2023-07-31T03:39:26;16.40;;;13.35;;
11691;SDS011;33659;42.672;23.354;2023-07-31T03:41:54;14.30;;;12.80;;
11691;SDS011;33659;42.672;23.354;2023-07-31T03:44:21;15.10;;;13.40;;
11691;SDS011;33659;42.672;23.354;2023-07-31T03:46:48;14.38;;;12.80;;
11691;SDS011;33659;42.672;23.354;2023-07-31T03:49:14;16.27;;;13.80;;
11691;SDS011;33659;42.672;23.354;2023-07-31T03:51:41;17.10;;;13.57;;
11691;SDS011;33659;42.672;23.354;2023-07-31T03:54:08;17.70;;;15.13;;
11691;SDS011;33659;42.672;23.354;2023-07-31T03:56:34;17.60;;;13.25;;
11691;SDS011;33659;42.672;23.354;2023-07-31T03:59:04;17.02;;;13.98;;
11691;SDS011;33659;42.672;23.354;2023-07-31T04:01:31;17.50;;;14.48;;
11691;SDS011;33659;42.672;23.354;2023-07-31T04:03:58;17.27;;;14.35;;
11691;SDS011;33659;42.672;23.354;2023-07-31T04:06:25;15.63;;;12.95;;
11691;SDS011;33659;42.672;23.354;2023-07-31T04:08:51;17.20;;;14.05;;
11691;SDS011;33659;42.672;23.354;2023-07-31T04:11:18;16.75;;;13.82;;
11691;SDS011;33659;42.672;23.354;2023-07-31T04:13:45;19.23;;;13.55;;
11691;SDS011;33659;42.672;23.354;2023-07-31T04:16:13;17.85;;;14.02;;
11691;SDS011;33659;42.672;23.354;2023-07-31T04:18:39;19.55;;;14.82;;
11691;SDS011;33659;42.672;23.354;2023-07-31T04:21:06;15.45;;;13.27;;
11691;SDS011;33659;42.672;23.354;2023-07-31T04:23:33;15.75;;;13.43;;
11691;SDS011;33659;42.672;23.354;2023-07-31T04:26:00;17.48;;;14.00;;
11691;SDS011;33659;42.672;23.354;2023-07-31T04:28:26;17.90;;;14.20;;
11691;SDS011;33659;42.672;23.354;2023-07-31T04:30:53;17.63;;;12.70;;
11691;SDS011;33659;42.672;23.354;2023-07-31T04:33:21;18.35;;;15.02;;
11691;SDS011;33659;42.672;23.354;2023-07-31T04:35:49;16.02;;;14.18;;
11691;SDS011;33659;42.672;23.354;2023-07-31T04:38:18;15.88;;;13.18;;
11691;SDS011;33659;42.672;23.354;2023-07-31T04:40:45;16.10;;;13.38;;
11691;SDS011;33659;42.672;23.354;2023-07-31T04:43:11;16.02;;;13.10;;
11691;SDS011;33659;42.672;23.354;2023-07-31T04:45:38;18.92;;;13.38;;
11691;SDS011;33659;42.672;23.354;2023-07-31T04:48:05;16.08;;;13.48;;
11691;SDS011;33659;42.672;23.354;2023-07-31T04:50:33;19.38;;;13.82;;
11691;SDS011;33659;42.672;23.354;2023-07-31T04:53:00;16.02;;;12.98;;
11691;SDS011;33659;42.672;23.354;2023-07-31T04:55:27;15.35;;;13.32;;
11691;SDS011;33659;42.672;23.354;2023-07-31T04:57:53;18.00;;;14.18;;
11691;SDS011;33659;42.672;23.354;2023-07-31T05:00:20;16.40;;;13.60;;
11691;SDS011;33659;42.672;23.354;2023-07-31T05:02:47;16.17;;;13.07;;
11691;SDS011;33659;42.672;23.354;2023-07-31T05:05:14;15.38;;;13.13;;
11691;SDS011;33659;42.672;23.354;2023-07-31T05:07:42;17.20;;;13.80;;
11691;SDS011;33659;42.672;23.354;2023-07-31T05:10:09;18.23;;;13.57;;
11691;SDS011;33659;42.672;23.354;2023-07-31T05:12:35;14.63;;;12.57;;
11691;SDS011;33659;42.672;23.354;2023-07-31T05:15:02;14.32;;;12.38;;
11691;SDS011;33659;42.672;23.354;2023-07-31T05:17:29;14.48;;;11.90;;
11691;SDS011;33659;42.672;23.354;2023-07-31T05:19:56;15.50;;;12.30;;
11691;SDS011;33659;42.672;23.354;2023-07-31T05:22:23;12.55;;;10.95;;
11691;SDS011;33659;42.672;23.354;2023-07-31T05:24:51;15.35;;;12.10;;
11691;SDS011;33659;42.672;23.354;2023-07-31T05:27:19;12.43;;;11.13;;
11691;SDS011;33659;42.672;23.354;2023-07-31T05:29:46;12.85;;;11.48;;
11691;SDS011;33659;42.672;23.354;2023-07-31T05:32:12;12.90;;;10.60;;
11691;SDS011;33659;42.672;23.354;2023-07-31T05:34:39;10.48;;;9.38;;
11691;SDS011;33659;42.672;23.354;2023-07-31T05:37:06;10.57;;;8.80;;
11691;SDS011;33659;42.672;23.354;2023-07-31T05:39:32;11.07;;;9.63;;
11691;SDS011;33659;42.672;23.354;2023-07-31T05:42:01;10.80;;;9.70;;
11691;SDS011;33659;42.672;23.354;2023-07-31T05:44:27;10.13;;;9.13;;
11691;SDS011;33659;42.672;23.354;2023-07-31T05:46:54;10.52;;;8.95;;
11691;SDS011;33659;42.672;23.354;2023-07-31T05:49:21;9.73;;;8.73;;
11691;SDS011;33659;42.672;23.354;2023-07-31T05:51:48;9.02;;;8.13;;
11691;SDS011;33659;42.672;23.354;2023-07-31T05:54:14;9.25;;;7.40;;
11691;SDS011;33659;42.672;23.354;2023-07-31T05:56:41;8.15;;;7.35;;
11691;SDS011;33659;42.672;23.354;2023-07-31T05:59:09;10.35;;;6.70;;
11691;SDS011;33659;42.672;23.354;2023-07-31T06:01:38;7.25;;;6.55;;
11691;SDS011;33659;42.672;23.354;2023-07-31T06:04:05;7.15;;;6.45;;
11691;SDS011;33659;42.672;23.354;2023-07-31T06:06:32;9.20;;;6.85;;
11691;SDS011;33659;42.672;23.354;2023-07-31T06:08:58;8.48;;;5.88;;
11691;SDS011;33659;42.672;23.354;2023-07-31T06:11:25;8.15;;;6.70;;
11691;SDS011;33659;42.672;23.354;2023-07-31T06:13:52;6.07;;;5.45;;
11691;SDS011;33659;42.672;23.354;2023-07-31T06:16:20;7.05;;;5.63;;
11691;SDS011;33659;42.672;23.354;2023-07-31T06:18:47;5.38;;;4.82;;
11691;SDS011;33659;42.672;23.354;2023-07-31T06:21:14;5.15;;;4.55;;
11691;SDS011;33659;42.672;23.354;2023-07-31T06:23:41;5.03;;;4.40;;
11691;SDS011;33659;42.672;23.354;2023-07-31T06:26:07;4.85;;;4.32;;
11691;SDS011;33659;42.672;23.354;2023-07-31T06:28:34;7.07;;;4.53;;
11691;SDS011;33659;42.672;23.354;2023-07-31T06:31:01;5.22;;;4.22;;
11691;SDS011;33659;42.672;23.354;2023-07-31T06:33:29;4.65;;;3.97;;
11691;SDS011;33659;42.672;23.354;2023-07-31T06:35:56;5.20;;;4.18;;
11691;SDS011;33659;42.672;23.354;2023-07-31T06:38:24;4.72;;;4.00;;
11691;SDS011;33659;42.672;23.354;2023-07-31T06:40:51;4.22;;;3.85;;
11691;SDS011;33659;42.672;23.354;2023-07-31T06:43:18;4.53;;;4.05;;
11691;SDS011;33659;42.672;23.354;2023-07-31T06:45:45;3.80;;;3.38;;
11691;SDS011;33659;42.672;23.354;2023-07-31T06:48:13;5.45;;;3.88;;
11691;SDS011;33659;42.672;23.354;2023-07-31T06:50:41;4.47;;;4.07;;
11691;SDS011;33659;42.672;23.354;2023-07-31T06:53:08;5.50;;;3.88;;
11691;SDS011;33659;42.672;23.354;2023-07-31T06:55:35;4.82;;;4.30;;
11691;SDS011;33659;42.672;23.354;2023-07-31T06:58:02;4.45;;;4.00;;
11691;SDS011;33659;42.672;23.354;2023-07-31T07:00:29;4.18;;;3.45;;
11691;SDS011;33659;42.672;23.354;2023-07-31T07:02:55;3.67;;;3.38;;
11691;SDS011;33659;42.672;23.354;2023-07-31T07:05:22;3.85;;;3.42;;
11691;SDS011;33659;42.672;23.354;2023-07-31T07:07:50;3.85;;;3.40;;
11691;SDS011;33659;42.672;23.354;2023-07-31T07:10:17;3.95;;;3.10;;
11691;SDS011;33659;42.672;23.354;2023-07-31T07:12:44;3.95;;;3.38;;
11691;SDS011;33659;42.672;23.354;2023-07-31T07:15:11;4.00;;;3.60;;
11691;SDS011;33659;42.672;23.354;2023-07-31T07:17:37;3.88;;;3.58;;
11691;SDS011;33659;42.672;23.354;2023-07-31T07:20:04;4.32;;;3.20;;
11691;SDS011;33659;42.672;23.354;2023-07-31T07:22:33;5.13;;;3.13;;
11691;SDS011;33659;42.672;23.354;2023-07-31T07:25:01;4.30;;;3.08;;
11691;SDS011;33659;42.672;23.354;2023-07-31T07:27:28;4.00;;;3.25;;
11691;SDS011;33659;42.672;23.354;2023-07-31T07:29:54;3.30;;;3.00;;
11691;SDS011;33659;42.672;23.354;2023-07-31T07:32:21;4.53;;;3.05;;
11691;SDS011;33659;42.672;23.354;2023-07-31T07:34:48;3.42;;;3.13;;
11691;SDS011;33659;42.672;23.354;2023-07-31T07:37:15;3.90;;;3.33;;
11691;SDS011;33659;42.672;23.354;2023-07-31T07:39:42;5.28;;;3.03;;
11691;SDS011;33659;42.672;23.354;2023-07-31T07:42:10;5.80;;;3.03;;
11691;SDS011;33659;42.672;23.354;2023-07-31T07:44:37;4.95;;;3.00;;
11691;SDS011;33659;42.672;23.354;2023-07-31T07:47:04;3.80;;;3.13;;
11691;SDS011;33659;42.672;23.354;2023-07-31T07:49:32;3.67;;;3.20;;
11691;SDS011;33659;42.672;23.354;2023-07-31T07:51:59;3.58;;;2.97;;
11691;SDS011;33659;42.672;23.354;2023-07-31T07:54:26;6.78;;;4.20;;
11691;SDS011;33659;42.672;23.354;2023-07-31T07:56:52;3.88;;;2.97;;
11691;SDS011;33659;42.672;23.354;2023-07-31T07:59:20;7.38;;;3.08;;
11691;SDS011;33659;42.672;23.354;2023-07-31T08:01:47;6.82;;;2.80;;
11691;SDS011;33659;42.672;23.354;2023-07-31T08:04:14;3.70;;;2.78;;
11691;SDS011;33659;42.672;23.354;2023-07-31T08:06:40;2.78;;;2.50;;
11691;SDS011;33659;42.672;23.354;2023-07-31T08:09:07;4.28;;;2.83;;
11691;SDS011;33659;42.672;23.354;2023-07-31T08:11:34;3.05;;;2.72;;
11691;SDS011;33659;42.672;23.354;2023-07-31T08:14:01;3.67;;;3.00;;
11691;SDS011;33659;42.672;23.354;2023-07-31T08:16:29;3.20;;;2.90;;
11691;SDS011;33659;42.672;23.354;2023-07-31T08:18:56;3.08;;;2.72;;
11691;SDS011;33659;42.672;23.354;2023-07-31T08:21:23;4.25;;;3.28;;
11691;SDS011;33659;42.672;23.354;2023-07-31T08:23:50;5.70;;;3.13;;
11691;SDS011;33659;42.672;23.354;2023-07-31T08:26:16;3.15;;;2.83;;
11691;SDS011;33659;42.672;23.354;2023-07-31T08:28:44;3.22;;;2.88;;
11691;SDS011;33659;42.672;23.354;2023-07-31T08:31:11;3.92;;;2.80;;
11691;SDS011;33659;42.672;23.354;2023-07-31T08:33:39;3.72;;;2.85;;
11691;SDS011;33659;42.672;23.354;2023-07-31T08:36:06;3.97;;;2.65;;
11691;SDS011;33659;42.672;23.354;2023-07-31T08:38:33;3.20;;;2.90;;
11691;SDS011;33659;42.672;23.354;2023-07-31T08:40:59;5.72;;;2.72;;
11691;SDS011;33659;42.672;23.354;2023-07-31T08:43:26;3.70;;;3.03;;
11691;SDS011;33659;42.672;23.354;2023-07-31T08:45:53;4.82;;;2.70;;
11691;SDS011;33659;42.672;23.354;2023-07-31T08:48:21;5.60;;;2.75;;
11691;SDS011;33659;42.672;23.354;2023-07-31T08:50:50;5.03;;;3.30;;
11691;SDS011;33659;42.672;23.354;2023-07-31T08:53:17;3.08;;;2.78;;
11691;SDS011;33659;42.672;23.354;2023-07-31T08:55:44;6.15;;;3.03;;
11691;SDS011;33659;42.672;23.354;2023-07-31T08:58:12;2.55;;;2.35;;
11691;SDS011;33659;42.672;23.354;2023-07-31T09:00:40;2.55;;;2.35;;
11691;SDS011;33659;42.672;23.354;2023-07-31T09:03:09;4.07;;;2.28;;
11691;SDS011;33659;42.672;23.354;2023-07-31T09:05:41;2.58;;;2.38;;
11691;SDS011;33659;42.672;23.354;2023-07-31T09:08:11;2.53;;;2.33;;
11691;SDS011;33659;42.672;23.354;2023-07-31T09:10:42;3.10;;;2.80;;
11691;SDS011;33659;42.672;23.354;2023-07-31T09:13:11;3.95;;;2.35;;
11691;SDS011;33659;42.672;23.354;2023-07-31T09:15:38;3.75;;;2.92;;
11691;SDS011;33659;42.672;23.354;2023-07-31T09:18:06;2.67;;;2.35;;
11691;SDS011;33659;42.672;23.354;2023-07-31T09:20:33;2.42;;;2.22;;
11691;SDS011;33659;42.672;23.354;2023-07-31T09:23:07;4.13;;;3.00;;
11691;SDS011;33659;42.672;23.354;2023-07-31T09:25:37;2.42;;;2.22;;
11691;SDS011;33659;42.672;23.354;2023-07-31T09:28:05;3.70;;;2.50;;
11691;SDS011;33659;42.672;23.354;2023-07-31T09:30:43;2.78;;;2.58;;
11691;SDS011;33659;42.672;23.354;2023-07-31T09:33:11;4.13;;;2.97;;
11691;SDS011;33659;42.672;23.354;2023-07-31T09:35:38;3.88;;;2.88;;
11691;SDS011;33659;42.672;23.354;2023-07-31T09:38:06;4.65;;;2.80;;
11691;SDS011;33659;42.672;23.354;2023-07-31T09:40:35;3.53;;;2.92;;
11691;SDS011;33659;42.672;23.354;2023-07-31T09:43:06;4.53;;;3.35;;
11691;SDS011;33659;42.672;23.354;2023-07-31T09:45:35;3.17;;;2.60;;
11691;SDS011;33659;42.672;23.354;2023-07-31T09:48:03;3.25;;;2.95;;
11691;SDS011;33659;42.672;23.354;2023-07-31T09:50:34;4.22;;;2.60;;
11691;SDS011;33659;42.672;23.354;2023-07-31T09:53:03;3.80;;;2.83;;
11691;SDS011;33659;42.672;23.354;2023-07-31T09:55:30;2.65;;;2.45;;
11691;SDS011;33659;42.672;23.354;2023-07-31T09:57:59;3.65;;;2.40;;
11691;SDS011;33659;42.672;23.354;2023-07-31T10:00:29;3.05;;;2.47;;
11691;SDS011;33659;42.672;23.354;2023-07-31T10:02:57;2.63;;;2.42;;
11691;SDS011;33659;42.672;23.354;2023-07-31T10:05:25;2.60;;;2.20;;
11691;SDS011;33659;42.672;23.354;2023-07-31T10:07:57;4.85;;;2.30;;
11691;SDS011;33659;42.672;23.354;2023-07-31T10:10:24;3.25;;;2.40;;
11691;SDS011;33659;42.672;23.354;2023-07-31T10:12:52;2.50;;;2.28;;
11691;SDS011;33659;42.672;23.354;2023-07-31T10:15:21;2.88;;;2.13;;
11691;SDS011;33659;42.672;23.354;2023-07-31T10:17:48;4.30;;;2.40;;
11691;SDS011;33659;42.672;23.354;2023-07-31T10:20:16;2.55;;;2.35;;
11691;SDS011;33659;42.672;23.354;2023-07-31T10:22:43;2.50;;;2.30;;
11691;SDS011;33659;42.672;23.354;2023-07-31T10:25:12;3.22;;;2.00;;
11691;SDS011;33659;42.672;23.354;2023-07-31T10:27:39;1.92;;;1.77;;
11691;SDS011;33659;42.672;23.354;2023-07-31T10:30:07;8.10;;;2.17;;
11691;SDS011;33659;42.672;23.354;2023-07-31T10:32:39;2.65;;;2.45;;
11691;SDS011;33659;42.672;23.354;2023-07-31T10:35:07;3.25;;;2.20;;
11691;SDS011;33659;42.672;23.354;2023-07-31T10:37:38;1.70;;;1.60;;
11691;SDS011;33659;42.672;23.354;2023-07-31T10:40:09;2.17;;;2.08;;
11691;SDS011;33659;42.672;23.354;2023-07-31T10:42:37;2.47;;;2.28;;
11691;SDS011;33659;42.672;23.354;2023-07-31T10:45:12;1.92;;;1.75;;
11691;SDS011;33659;42.672;23.354;2023-07-31T10:47:43;1.88;;;1.77;;
11691;SDS011;33659;42.672;23.354;2023-07-31T10:50:12;2.08;;;1.98;;
11691;SDS011;33659;42.672;23.354;2023-07-31T10:52:40;2.80;;;2.08;;
11691;SDS011;33659;42.672;23.354;2023-07-31T10:55:14;2.28;;;2.08;;
11691;SDS011;33659;42.672;23.354;2023-07-31T10:57:44;2.78;;;1.90;;
11691;SDS011;33659;42.672;23.354;2023-07-31T11:00:18;2.33;;;1.80;;
11691;SDS011;33659;42.672;23.354;2023-07-31T11:02:57;1.50;;;1.40;;
11691;SDS011;33659;42.672;23.354;2023-07-31T11:08:14;2.00;;;1.85;;
11691;SDS011;33659;42.672;23.354;2023-07-31T11:10:42;2.10;;;2.00;;
11691;SDS011;33659;42.672;23.354;2023-07-31T11:13:10;1.60;;;1.50;;
11691;SDS011;33659;42.672;23.354;2023-07-31T11:15:37;2.00;;;1.90;;
11691;SDS011;33659;42.672;23.354;2023-07-31T11:18:05;2.50;;;2.13;;
11691;SDS011;33659;42.672;23.354;2023-07-31T11:20:33;1.88;;;1.77;;
11691;SDS011;33659;42.672;23.354;2023-07-31T11:23:02;1.90;;;1.80;;
11691;SDS011;33659;42.672;23.354;2023-07-31T11:25:30;3.08;;;1.98;;
11691;SDS011;33659;42.672;23.354;2023-07-31T11:27:57;2.55;;;1.85;;
11691;SDS011;33659;42.672;23.354;2023-07-31T11:30:29;3.50;;;2.08;;
11691;SDS011;33659;42.672;23.354;2023-07-31T11:32:55;2.90;;;2.03;;
11691;SDS011;33659;42.672;23.354;2023-07-31T11:35:24;1.90;;;1.73;;
11691;SDS011;33659;42.672;23.354;2023-07-31T11:37:50;3.50;;;2.05;;
11691;SDS011;33659;42.672;23.354;2023-07-31T11:40:17;2.78;;;1.80;;
11691;SDS011;33659;42.672;23.354;2023-07-31T11:42:45;2.40;;;2.05;;
11691;SDS011;33659;42.672;23.354;2023-07-31T11:45:11;2.10;;;1.90;;
11691;SDS011;33659;42.672;23.354;2023-07-31T11:47:38;2.40;;;2.20;;
11691;SDS011;33659;42.672;23.354;2023-07-31T11:50:05;2.15;;;1.92;;
11691;SDS011;33659;42.672;23.354;2023-07-31T11:52:37;2.55;;;2.35;;
11691;SDS011;33659;42.672;23.354;2023-07-31T11:55:08;4.82;;;2.30;;
11691;SDS011;33659;42.672;23.354;2023-07-31T11:57:36;2.80;;;2.47;;
11691;SDS011;33659;42.672;23.354;2023-07-31T12:00:05;2.40;;;1.88;;
11691;SDS011;33659;42.672;23.354;2023-07-31T12:02:34;2.40;;;2.20;;
11691;SDS011;33659;42.672;23.354;2023-07-31T12:05:02;1.92;;;1.83;;
11691;SDS011;33659;42.672;23.354;2023-07-31T12:07:43;2.65;;;2.45;;
11691;SDS011;33659;42.672;23.354;2023-07-31T12:10:11;2.15;;;1.95;;
11691;SDS011;33659;42.672;23.354;2023-07-31T12:12:55;3.75;;;2.70;;
11691;SDS011;33659;42.672;23.354;2023-07-31T12:18:11;3.15;;;2.67;;
11691;SDS011;33659;42.672;23.354;2023-07-31T12:20:42;2.72;;;2.50;;
11691;SDS011;33659;42.672;23.354;2023-07-31T12:23:14;2.83;;;2.53;;
11691;SDS011;33659;42.672;23.354;2023-07-31T12:25:41;4.13;;;3.45;;
11691;SDS011;33659;42.672;23.354;2023-07-31T12:28:08;7.32;;;3.53;;
11691;SDS011;33659;42.672;23.354;2023-07-31T12:30:38;3.40;;;3.10;;
11691;SDS011;33659;42.672;23.354;2023-07-31T12:33:06;4.38;;;3.83;;
11691;SDS011;33659;42.672;23.354;2023-07-31T12:35:40;4.28;;;3.88;;
11691;SDS011;33659;42.672;23.354;2023-07-31T12:38:08;4.13;;;3.60;;
11691;SDS011;33659;42.672;23.354;2023-07-31T12:40:37;3.55;;;3.25;;
11691;SDS011;33659;42.672;23.354;2023-07-31T12:43:05;5.07;;;3.75;;
11691;SDS011;33659;42.672;23.354;2023-07-31T12:45:32;4.18;;;3.63;;
11691;SDS011;33659;42.672;23.354;2023-07-31T12:47:58;7.43;;;3.85;;
11691;SDS011;33659;42.672;23.354;2023-07-31T12:50:26;3.28;;;2.92;;
11691;SDS011;33659;42.672;23.354;2023-07-31T12:52:53;3.70;;;3.35;;
11691;SDS011;33659;42.672;23.354;2023-07-31T12:55:20;3.92;;;3.38;;
11691;SDS011;33659;42.672;23.354;2023-07-31T12:57:48;3.53;;;3.05;;
11691;SDS011;33659;42.672;23.354;2023-07-31T13:00:16;4.50;;;4.10;;
11691;SDS011;33659;42.672;23.354;2023-07-31T13:02:43;5.38;;;3.80;;
11691;SDS011;33659;42.672;23.354;2023-07-31T13:05:09;4.45;;;3.97;;
11691;SDS011;33659;42.672;23.354;2023-07-31T13:07:38;4.25;;;3.95;;
11691;SDS011;33659;42.672;23.354;2023-07-31T13:10:05;4.97;;;4.00;;
11691;SDS011;33659;42.672;23.354;2023-07-31T13:12:33;4.43;;;4.03;;
11691;SDS011;33659;42.672;23.354;2023-07-31T13:15:01;4.80;;;4.40;;
11691;SDS011;33659;42.672;23.354;2023-07-31T13:17:28;4.68;;;4.28;;
11691;SDS011;33659;42.672;23.354;2023-07-31T13:19:54;4.22;;;3.83;;
11691;SDS011;33659;42.672;23.354;2023-07-31T13:22:21;4.60;;;4.10;;
11691;SDS011;33659;42.672;23.354;2023-07-31T13:24:48;4.50;;;3.80;;
11691;SDS011;33659;42.672;23.354;2023-07-31T13:27:15;5.72;;;4.30;;
11691;SDS011;33659;42.672;23.354;2023-07-31T13:29:43;4.63;;;4.18;;
11691;SDS011;33659;42.672;23.354;2023-07-31T13:32:12;4.03;;;3.72;;
11691;SDS011;33659;42.672;23.354;2023-07-31T13:34:38;4.30;;;3.58;;
11691;SDS011;33659;42.672;23.354;2023-07-31T13:37:05;3.58;;;3.28;;
11691;SDS011;33659;42.672;23.354;2023-07-31T13:39:32;3.08;;;2.88;;
11691;SDS011;33659;42.672;23.354;2023-07-31T13:41:59;3.60;;;3.30;;
11691;SDS011;33659;42.672;23.354;2023-07-31T13:44:25;4.30;;;3.28;;
11691;SDS011;33659;42.672;23.354;2023-07-31T13:46:52;4.20;;;2.80;;
11691;SDS011;33659;42.672;23.354;2023-07-31T13:49:20;4.32;;;3.17;;
11691;SDS011;33659;42.672;23.354;2023-07-31T13:51:47;4.13;;;3.72;;
11691;SDS011;33659;42.672;23.354;2023-07-31T13:54:14;4.60;;;2.97;;
11691;SDS011;33659;42.672;23.354;2023-07-31T13:56:41;4.75;;;3.53;;
11691;SDS011;33659;42.672;23.354;2023-07-31T13:59:07;3.83;;;3.13;;
11691;SDS011;33659;42.672;23.354;2023-07-31T14:01:34;6.03;;;3.33;;
11691;SDS011;33659;42.672;23.354;2023-07-31T14:04:01;3.28;;;2.97;;
11691;SDS011;33659;42.672;23.354;2023-07-31T14:06:29;3.28;;;2.97;;
11691;SDS011;33659;42.672;23.354;2023-07-31T14:08:55;17.42;;;3.25;;
11691;SDS011;33659;42.672;23.354;2023-07-31T14:11:22;3.67;;;3.28;;
11691;SDS011;33659;42.672;23.354;2023-07-31T14:13:49;3.45;;;3.15;;
11691;SDS011;33659;42.672;23.354;2023-07-31T14:16:17;3.90;;;2.90;;
11691;SDS011;33659;42.672;23.354;2023-07-31T14:18:43;3.85;;;3.55;;
11691;SDS011;33659;42.672;23.354;2023-07-31T14:21:11;3.80;;;3.28;;
11691;SDS011;33659;42.672;23.354;2023-07-31T14:23:39;4.80;;;3.85;;
11691;SDS011;33659;42.672;23.354;2023-07-31T14:26:06;4.78;;;3.60;;
11691;SDS011;33659;42.672;23.354;2023-07-31T14:28:33;4.45;;;3.60;;
11691;SDS011;33659;42.672;23.354;2023-07-31T14:31:00;4.28;;;3.70;;
11691;SDS011;33659;42.672;23.354;2023-07-31T14:33:26;4.72;;;3.28;;
11691;SDS011;33659;42.672;23.354;2023-07-31T14:35:53;7.70;;;3.20;;